[source: ADDS]
METAR
EDVE 140750Z 24008KT 200V280 CAVOK 22/08 Q1015

TAF EDVE 140540Z 1406/1415 VRB02KT CAVOK BECMG 1406/1408 25006KT EDDV 140750Z 26004KT 200V300 CAVOK 21/12 Q1015 NOSIG

TAF EDDV 140500Z 1406/1506 VRB03KT CAVOK BECMG 1407/1409 27007KT PROB30 TEMPO 1414/1418 SHRA BKN045CB BECMG 1416/1418 33005KT BECMG 1418/1420 VRB03KT BKN013 TEMPO 1418/1504 4000 -RA BKN007 PROB40 TEMPO 1504/1506 BKN005 ETHS 140720Z 25005KT 9999 SCT160 BKN240 20/11 Q1015 BLU+BLU+ BECMG BLU

TAF ETHS 140720Z 1408/1417 25007KT 9999 NSW FEW040 BKN150 TEMPO 1416/1417 30005KT 7000 -RA SCT040 BKN060 ETHC 140720Z 23005KT 9999 FEW150 SCT210 BKN240 19/11 Q1015 BLU+BLU+

TAF ETHC 140717Z 1408/1417 29007KT 9999 NSW FEW050 BKN130 EDVK 140750Z VRB02KT CAVOK 20/10 Q1016

TAF EDVK 140500Z 1406/1415 14004KT CAVOK BECMG 1409/1411 22006KT BECMG 1413/1415 30006KT
TAF
TAF EDVE 140540Z 1406/1415 VRB02KT CAVOK BECMG 1406/1408 25006KT

TAF EDDV 140500Z 1406/1506 VRB03KT CAVOK BECMG 1407/1409 27007KT PROB30 TEMPO 1414/1418 SHRA BKN045CB BECMG 1416/1418 33005KT BECMG 1418/1420 VRB03KT BKN013 TEMPO 1418/1504 4000 -RA BKN007 PROB40 TEMPO 1504/1506 BKN005

TAF ETHS 140720Z 1408/1417 25007KT 9999 NSW FEW040 BKN150 TEMPO 1416/1417 30005KT 7000 -RA SCT040 BKN060

TAF ETHC 140717Z 1408/1417 29007KT 9999 NSW FEW050 BKN130

TAF EDVK 140500Z 1406/1415 14004KT CAVOK BECMG 1409/1411 22006KT BECMG 1413/1415 30006KT

SR / SS: 03:14 / 19:33 UTC (EDVE 2020-07-14)
Oliver hat seinen ersten Alleinflug absolviert! Herzlichen Glückwunsch und weiterhin Happy Landings! +++ Wir begrüßen Gianluca in den Reihen der FFG! Viel Erfolg bei der Ausbildung! +++ Schon wieder zwei neue Mitglieder, herzlich Willkommen Andreas und Thomas! +++ Willkommen in der FFG Fabian! +++ Jens hat die praktische Prüfung bestanden! Herzlichen Glückwunsch und allzeit guten Flug! +++ Wir begrüßen Christopher als neues Mitglied der FFG! Always Happy Landings! +++ Flugbetrieb und Ausbildungsbetrieb unter Auflagen wieder möglich. +++ Gero steht ebenfalls als Fluglehrer zur Verfügung! Vielen Dank an Gero und viel Erfolg beim Ausbilden. +++ Ilya hat die Theorieprüfung bestanden! Herzlichen Glückwunsch und weiterhin viel Erfolg für die restliche Ausbildung! +++ Hallo Felix, herzlich Willkommen bei der FFG und viel Erfolg für deine Pilotenausbildung! +++ Jens verstärkt als neuer Fluglehrer ab sofort unser FFG-Fluglehrer-Team. Glückwunsch und viel Erfolg beim Ausbilden! +++

Neues Bild in 60 Sekunden

Letztes NOTAM EDVE
von 27.07.2020 0600Z bis 29.07.2020 1500Z
0600-1500
DUE TO MAINT OF CEL NDB THE FLW CHANGES TO SID OCCUR: GPS/FMS RNAV OVERLAY REMAIN UNCHANGED. AMEND CEL NDB TO READ CEL I [more]


Letztes NOTAM EDBC
von 09.07.2020 1133Z bis 08.10.2020 2359Z
MET SERVICES (AD WARNINGS, METAR, TAF) NOT AVBL.

Letztes NOTAM EDVM
von 27.07.2020 0400Z bis 31.07.2020 1900Z
DAILY 0400-0700, 1700-1900
PJE 3NM RADIUS CENTERED ON PSN 521047N 0095644E, HILDESHEIM
GND- FL080

Letztes NOTAM EDDV
von 13.07.2020 1001Z bis 10.10.2020 2359Z
DUE TO OUTAGE OF HW LO THE FLW CHANGES TO APCH PROC APPLY: NDB APCH PROCEDURE RWY 09L TEMPO SUSPENDED. REF AIP AD 2 EDDV 4-4-2 EFF 23 [more]

Letztes NOTAM EDVK
von 03.08.2020 0900Z bis 03.08.2020 1200Z
DUE TO MAINT OF WRB DVOR/DME THE FLW CHANGES TO APCH PROC OCCUR: RWY 27: ILS/LOC STANDARD APCH PROC FROM WRB TEMPO SUSPENDED. RWY 09: [more]

Letztes NOTAM EDVS
von 01.07.2020 1304Z bis 30.09.2020 2359Z
CRANE APRX 244M SE OF RWY. HGT 30M AGL. DAY AND NIGHT MARKED.

          aerodata150     Radio38